Strona główna
METAR-TAF:

METAR-TAF

Lotnisko :

Platforma wiertnicza Norsk Hydro

Oseberg, Norwegia

Szerokość geograficzna: 60-29-29N, Długość geograficzna: 2-49-32E, wysokość: 158 m

Aktualna obserwacja pogody

Raport powstał 28 minut temu, godzina 23:50 UTC
Wiatr 18 kt od południe
Temperatura 7°C
Wilgotność 70%
Ciśnienie 1017 hPa
Widzialność 10 km lub więcej
Przerywane chmury na wysokości 2500 ft

METAR: ENOA 262350Z 19018KT 9999 BKN025 07/02 Q1017 W///S4

czas: 01:18 (00:18 UTC)

Prognoza

Raport powstał 1 godzina i 18 minut temu, godzina 23:00 UTC
Prognoza ważna od 27 godzina 00 UTC do 27 godzina 24 UTC
Wiatr 18 kt od południowo-południowy zachód
Widzialność 10 km lub więcej
Przerywane chmury na wysokości 3000 ft
Prawdopodobieństwo 30% :
Przejściowo
od 27 godzina 01 UTC do 27 godzina 04 UTC
Przerywane chmury na wysokości 1400 ft

TAF: ENOA 262300Z 2700/2724 21018KT 9999 BKN030 PROB30 TEMPO 2701/2704 BKN014

Obserwacja i prognoza pogody dla ponad 4000 lotnisk (raport METAR i TAF).

Dostępne stacje oznaczono żółtymi i czerwonymi punktami na mapie.

Najedź kursorem aby zobaczyć nazwę stacji.

Kliknij aby zobaczyć obserwacje i prognozy pogody.

Aby zmienić mapę: kliknij na zielony przycisk z czarnym krzyżykiem, aby powiększyć; na zielony przycisk z myślnikiem, aby pomniejszyć; na zielone strzałki, aby przejść do map sąsiednich.


METAR-TAF: